Observation data for Spur on 01/18/2019      Previous  Date  Next       Current Mesonet Observations  Soil Data  Daily Summary Page  Observations in Plain Language
KSP1 180600Z 32005KT 02/00 A3002 RMK A01 T001700-0  RH  090%=      5-min Rain = 0
KSP1 180605Z 31005KT 02/00 A3002 RMK A01 T00200003  RH  089%=      5-min Rain = 0
KSP1 180610Z 32004KT 02/00 A3002 RMK A01 T00200001  RH  088%=      5-min Rain = 0
KSP1 180615Z 30003KT 02/M00 A3002 RMK A01 T00191001  RH  088%=      5-min Rain = 0
KSP1 180620Z 32003KT 02/M00 A3002 RMK A01 T00161004  RH  088%=      5-min Rain = 0
KSP1 180625Z 32004KT 01/M01 A3001 RMK A01 T00131006  RH  088%=      5-min Rain = 0
KSP1 180630Z 32004KT 01/M00 A3001 RMK A01 T00141004  RH  089%=      5-min Rain = 0
KSP1 180635Z 30003KT 02/M00 A3001 RMK A01 T00161001  RH  090%=      5-min Rain = 0
KSP1 180640Z 29003KT 02/00 A30 RMK A01 T001700-0  RH  089%=      5-min Rain = 0
KSP1 180645Z 29003KT 01/M01 A30 RMK A01 T00141005  RH  089%=      5-min Rain = 0
KSP1 180650Z 29002KT 01/M01 A30 RMK A01 T00121005  RH  090%=      5-min Rain = 0
KSP1 180655Z 32003KT 01/M00 A2999 RMK A01 T00131003  RH  090%=      5-min Rain = 0
KSP1 180700Z 32004KT 01/M01 A2999 RMK A01 T00111005  RH  090%=      5-min Rain = 0
KSP1 180705Z 31004KT 01/M01 A2999 RMK A01 T00101005  RH  091%=      5-min Rain = 0
KSP1 180710Z 31004KT 01/M01 A2999 RMK A01 T00101005  RH  091%=      5-min Rain = 0
KSP1 180715Z 31004KT 01/M00 A2998 RMK A01 T00111003  RH  091%=      5-min Rain = 0
KSP1 180720Z 30003KT 01/00 A2998 RMK A01 T001300-0  RH  092%=      5-min Rain = 0
KSP1 180725Z 27003KT 02/01 A2998 RMK A01 T00190006  RH  092%=      5-min Rain = 0
KSP1 180730Z 25003KT 02/00 A2998 RMK A01 T00200004  RH  091%=      5-min Rain = 0
KSP1 180735Z 25001KT 02/00 A2997 RMK A01 T00170000  RH  090%=      5-min Rain = 0
KSP1 180740Z 29001KT 01/M00 A2997 RMK A01 T00141002  RH  090%=      5-min Rain = 0
KSP1 180745Z 36002KT 02/00 A2997 RMK A01 T001500-0  RH  091%=      5-min Rain = 0
KSP1 180750Z 32003KT 02/00 A2997 RMK A01 T00150000  RH  091%=      5-min Rain = 0
KSP1 180755Z 29003KT 01/M00 A2997 RMK A01 T00141001  RH  091%=      5-min Rain = 0
KSP1 180800Z 26002KT 01/M00 A2997 RMK A01 T00141001  RH  091%=      5-min Rain = 0
KSP1 180805Z 25003KT 01/M00 A2997 RMK A01 T00131002  RH  090%=      5-min Rain = 0
KSP1 180810Z 24003KT 01/M01 A2996 RMK A01 T00101006  RH  090%=      5-min Rain = 0
KSP1 180815Z 23003KT 01/M01 A2996 RMK A01 T00101005  RH  091%=      5-min Rain = 0
KSP1 180820Z 22002KT 01/M01 A2996 RMK A01 T00091006  RH  091%=      5-min Rain = 0
KSP1 180825Z 22002KT 01/M01 A2996 RMK A01 T00091005  RH  091%=      5-min Rain = 0
KSP1 180830Z 23000KT 01/M01 A2996 RMK A01 T00101005  RH  091%=      5-min Rain = 0
KSP1 180835Z 34000KT 01/M01 A2995 RMK A01 T00091006  RH  091%=      5-min Rain = 0
KSP1 180840Z 34001KT 01/M01 A2995 RMK A01 T00051009  RH  091%=      5-min Rain = 0
KSP1 180845Z 30001KT 00/M01 A2995 RMK A01 T00041009  RH  092%=      5-min Rain = 0
KSP1 180850Z 23001KT 01/M01 A2994 RMK A01 T00061006  RH  092%=      5-min Rain = 0
KSP1 180855Z 21002KT 01/M01 A2994 RMK A01 T00071005  RH  093%=      5-min Rain = 0
KSP1 180900Z 20002KT 01/M00 A2994 RMK A01 T00081004  RH  092%=      5-min Rain = 0
KSP1 180905Z 20002KT 01/M01 A2993 RMK A01 T00061007  RH  092%=      5-min Rain = 0
KSP1 180910Z 21003KT 01/M01 A2993 RMK A01 T00071005  RH  093%=      5-min Rain = 0
KSP1 180915Z 21003KT 01/M00 A2993 RMK A01 T00101002  RH  093%=      5-min Rain = 0
KSP1 180920Z 21003KT 01/00 A2993 RMK A01 T00120000  RH  093%=      5-min Rain = 0
KSP1 180925Z 21002KT 01/00 A2993 RMK A01 T00120000  RH  093%=      5-min Rain = 0
KSP1 180930Z 21001KT 01/M00 A2993 RMK A01 T00101004  RH  092%=      5-min Rain = 0
KSP1 180935Z 22001KT 01/M01 A2993 RMK A01 T00081005  RH  092%=      5-min Rain = 0
KSP1 180940Z 23000KT 01/M00 A2992 RMK A01 T00081004  RH  092%=      5-min Rain = 0
KSP1 180945Z 25000KT 01/M00 A2992 RMK A01 T00081004  RH  092%=      5-min Rain = 0
KSP1 180950Z 26001KT 01/M00 A2992 RMK A01 T00091003  RH  092%=      5-min Rain = 0
KSP1 180955Z 22002KT 01/00 A2992 RMK A01 T00130002  RH  094%=      5-min Rain = 0
KSP1 181000Z 21004KT 02/01 A2992 RMK A01 T00190007  RH  094%=      5-min Rain = 0
KSP1 181005Z 20004KT 02/01 A2991 RMK A01 T00240010  RH  092%=      5-min Rain = 0
KSP1 181010Z 21005KT 02/00 A2991 RMK A01 T00210003  RH  089%=      5-min Rain = 0
KSP1 181015Z 21005KT 02/M00 A2991 RMK A01 T00161002  RH  089%=      5-min Rain = 0
KSP1 181020Z 20005KT 01/M00 A299 RMK A01 T00141003  RH  089%=      5-min Rain = 0
KSP1 181025Z 21004KT 02/M00 A299 RMK A01 T00151001  RH  090%=      5-min Rain = 0
KSP1 181030Z 22004KT 02/00 A299 RMK A01 T00170001  RH  090%=      5-min Rain = 0
KSP1 181035Z 24004KT 02/00 A299 RMK A01 T00190003  RH  090%=      5-min Rain = 0
KSP1 181040Z 24003KT 02/01 A299 RMK A01 T00230007  RH  091%=      5-min Rain = 0
KSP1 181045Z 26003KT 03/01 A2989 RMK A01 T00250010  RH  091%=      5-min Rain = 0
KSP1 181050Z 24003KT 03/01 A2989 RMK A01 T00290012  RH  090%=      5-min Rain = 0
KSP1 181055Z 22003KT 03/02 A2989 RMK A01 T00330015  RH  089%=      5-min Rain = 0
KSP1 181100Z 23003KT 04/02 A2989 RMK A01 T00370017  RH  088%=      5-min Rain = 0
KSP1 181105Z 24003KT 04/02 A2989 RMK A01 T00390018  RH  087%=      5-min Rain = 0
KSP1 181110Z 24005KT 04/02 A2988 RMK A01 T00430019  RH  086%=      5-min Rain = 0
KSP1 181115Z 24005KT 05/02 A2988 RMK A01 T00480022  RH  085%=      5-min Rain = 0
KSP1 181120Z 25005KT 05/03 A2987 RMK A01 T00530025  RH  083%=      5-min Rain = 0
KSP1 181125Z 25004KT 06/02 A2987 RMK A01 T00550023  RH  082%=      5-min Rain = 0
KSP1 181130Z 25004KT 05/02 A2986 RMK A01 T00540023  RH  082%=      5-min Rain = 0
KSP1 181135Z 26003KT 05/02 A2986 RMK A01 T00520020  RH  081%=      5-min Rain = 0
KSP1 181140Z 28002KT 05/02 A2986 RMK A01 T00470017  RH  082%=      5-min Rain = 0
KSP1 181145Z 24003KT 05/02 A2985 RMK A01 T00460019  RH  084%=      5-min Rain = 0
KSP1 181150Z 22003KT 05/02 A2985 RMK A01 T00480019  RH  083%=      5-min Rain = 0
KSP1 181155Z 22003KT 05/02 A2985 RMK A01 T00470018  RH  083%=      5-min Rain = 0
KSP1 181200Z 22003KT 05/02 A2984 RMK A01 T00480019  RH  083%=      5-min Rain = 0
KSP1 181205Z 21002KT 05/02 A2984 RMK A01 T00460017  RH  083%=      5-min Rain = 0
KSP1 181210Z 20003KT 04/01 A2984 RMK A01 T00430014  RH  082%=      5-min Rain = 0
KSP1 181215Z 25001KT 04/01 A2984 RMK A01 T00380010  RH  083%=      5-min Rain = 0
KSP1 181220Z 33002KT 04/01 A2985 RMK A01 T00370013  RH  085%=      5-min Rain = 0
KSP1 181225Z 27001KT 04/02 A2984 RMK A01 T00410016  RH  086%=      5-min Rain = 0
KSP1 181230Z 26002KT 04/02 A2984 RMK A01 T00420016  RH  084%=      5-min Rain = 0
KSP1 181235Z 25003KT 04/02 A2984 RMK A01 T00430016  RH  084%=      5-min Rain = 0
KSP1 181240Z 27003KT 04/02 A2984 RMK A01 T00440015  RH  083%=      5-min Rain = 0
KSP1 181245Z 25003KT 04/02 A2984 RMK A01 T00440015  RH  083%=      5-min Rain = 0
KSP1 181250Z 22002KT 05/02 A2983 RMK A01 T00450015  RH  082%=      5-min Rain = 0
KSP1 181255Z 20002KT 05/01 A2983 RMK A01 T00450014  RH  082%=      5-min Rain = 0
KSP1 181300Z 21002KT 05/01 A2983 RMK A01 T00450014  RH  082%=      5-min Rain = 0
KSP1 181305Z 22001KT 04/01 A2983 RMK A01 T00420011  RH  082%=      5-min Rain = 0
KSP1 181310Z 20001KT 04/01 A2983 RMK A01 T00410012  RH  083%=      5-min Rain = 0
KSP1 181315Z 19002KT 04/01 A2983 RMK A01 T00420014  RH  083%=      5-min Rain = 0
KSP1 181320Z 19002KT 04/01 A2983 RMK A01 T00400011  RH  082%=      5-min Rain = 0
KSP1 181325Z 20003KT 04/01 A2983 RMK A01 T00370010  RH  084%=      5-min Rain = 0
KSP1 181330Z 20002KT 04/01 A2983 RMK A01 T00350009  RH  084%=      5-min Rain = 0
KSP1 181335Z 23002KT 03/01 A2983 RMK A01 T00340009  RH  085%=      5-min Rain = 0
KSP1 181340Z 22002KT 03/01 A2983 RMK A01 T00330009  RH  085%=      5-min Rain = 0
KSP1 181345Z 20003KT 03/01 A2983 RMK A01 T00320008  RH  085%=      5-min Rain = 0
KSP1 181350Z 24004KT 03/01 A2983 RMK A01 T00310008  RH  086%=      5-min Rain = 0
KSP1 181355Z 22005KT 04/01 A2982 RMK A01 T00350014  RH  088%=      5-min Rain = 0
KSP1 181400Z 23005KT 04/02 A2982 RMK A01 T00400018  RH  087%=      5-min Rain = 0
KSP1 181405Z 23006KT 05/02 A2982 RMK A01 T00500024  RH  085%=      5-min Rain = 0
KSP1 181410Z 23005KT 06/03 A2982 RMK A01 T00560026  RH  082%=      5-min Rain = 0
KSP1 181415Z 23006KT 06/03 A2981 RMK A01 T00610026  RH  079%=      5-min Rain = 0
KSP1 181420Z 24005KT 06/03 A2982 RMK A01 T00640026  RH  078%=      5-min Rain = 0
KSP1 181425Z 25005KT 07/03 A2982 RMK A01 T00680028  RH  077%=      5-min Rain = 0
KSP1 181430Z 24004KT 07/03 A2982 RMK A01 T00720031  RH  076%=      5-min Rain = 0
KSP1 181435Z 25005KT 08/03 A2982 RMK A01 T00760032  RH  075%=      5-min Rain = 0
KSP1 181440Z 24004KT 08/03 A2981 RMK A01 T00800033  RH  074%=      5-min Rain = 0
KSP1 181445Z 25004KT 08/03 A2981 RMK A01 T00830033  RH  072%=      5-min Rain = 0
KSP1 181450Z 25005KT 08/03 A2981 RMK A01 T00840031  RH  071%=      5-min Rain = 0
KSP1 181455Z 25005KT 08/03 A2981 RMK A01 T00830031  RH  071%=      5-min Rain = 0
KSP1 181500Z 26006KT 09/03 A2981 RMK A01 T00860032  RH  070%=      5-min Rain = 0
KSP1 181505Z 25009KT 09/03 A2981 RMK A01 T00870026  RH  067%=      5-min Rain = 0
KSP1 181510Z 25008KT 09/02 A2981 RMK A01 T00860023  RH  066%=      5-min Rain = 0
KSP1 181515Z 26008KT 09/02 A2981 RMK A01 T00880024  RH  065%=      5-min Rain = 0
KSP1 181520Z 26008KT 09/02 A2981 RMK A01 T00890024  RH  065%=      5-min Rain = 0
KSP1 181525Z 26007KT 09/03 A2981 RMK A01 T00930026  RH  064%=      5-min Rain = 0
KSP1 181530Z 26011KT 10/02 A298 RMK A01 T01000023  RH  060%=      5-min Rain = 0
KSP1 181535Z 25010G15KT 10/02 A2981 RMK A01 T01010022  RH  059%=      5-min Rain = 0
KSP1 181540Z 25010G16KT 10/02 A2981 RMK A01 T01010022  RH  059%=      5-min Rain = 0
KSP1 181545Z 24010G15KT 10/02 A2981 RMK A01 T01000021  RH  059%=      5-min Rain = 0
KSP1 181550Z 25009KT 10/02 A2981 RMK A01 T00980022  RH  060%=      5-min Rain = 0
KSP1 181555Z 25008KT 10/02 A2981 RMK A01 T00990022  RH  060%=      5-min Rain = 0
KSP1 181600Z 24009KT 10/02 A2981 RMK A01 T01020024  RH  059%=      5-min Rain = 0
KSP1 181605Z 24010KT 11/03 A298 RMK A01 T01120026  RH  057%=      5-min Rain = 0
KSP1 181610Z 24010G16KT 12/03 A298 RMK A01 T01190025  RH  053%=      5-min Rain = 0
KSP1 181615Z 24011KT 12/02 A298 RMK A01 T01210024  RH  052%=      5-min Rain = 0
KSP1 181620Z 24009G14KT 12/02 A298 RMK A01 T01190024  RH  053%=      5-min Rain = 0
KSP1 181625Z 24010KT 12/03 A298 RMK A01 T01210026  RH  053%=      5-min Rain = 0
KSP1 181630Z 24010G15KT 13/03 A298 RMK A01 T01300027  RH  050%=      5-min Rain = 0
KSP1 181635Z 24010KT 14/03 A2979 RMK A01 T01360027  RH  048%=      5-min Rain = 0
KSP1 181640Z 24012G17KT 14/03 A2979 RMK A01 T01420026  RH  046%=      5-min Rain = 0
KSP1 181645Z 24013G18KT 15/03 A2979 RMK A01 T01460026  RH  045%=      5-min Rain = 0
KSP1 181650Z 24011G16KT 15/03 A2979 RMK A01 T01510027  RH  044%=      5-min Rain = 0
KSP1 181655Z 23013G20KT 16/02 A2978 RMK A01 T01570024  RH  041%=      5-min Rain = 0
KSP1 181700Z 23012G17KT 16/02 A2977 RMK A01 T01630023  RH  040%=      5-min Rain = 0
KSP1 181705Z 24015G22KT 17/02 A2978 RMK A01 T01660016  RH  037%=      5-min Rain = 0
KSP1 181710Z 24016G21KT 17/01 A2978 RMK A01 T01680013  RH  035%=      5-min Rain = 0
KSP1 181715Z 24016G22KT 17/01 A2977 RMK A01 T01700010  RH  034%=      5-min Rain = 0
KSP1 181720Z 25015G22KT 17/01 A2977 RMK A01 T01720012  RH  034%=      5-min Rain = 0
KSP1 181725Z 25017G25KT 17/01 A2977 RMK A01 T01720010  RH  034%=      5-min Rain = 0
KSP1 181730Z 24016G22KT 17/01 A2977 RMK A01 T01740010  RH  034%=      5-min Rain = 0
KSP1 181735Z 25015G22KT 18/01 A2976 RMK A01 T01770009  RH  033%=      5-min Rain = 0
KSP1 181740Z 25015G22KT 18/01 A2976 RMK A01 T01790010  RH  032%=      5-min Rain = 0
KSP1 181745Z 25014G20KT 18/01 A2975 RMK A01 T01820009  RH  032%=      5-min Rain = 0
KSP1 181750Z 25015G22KT 19/01 A2975 RMK A01 T01850008  RH  031%=      5-min Rain = 0
KSP1 181755Z 24013G20KT 19/01 A2974 RMK A01 T01900010  RH  030%=      5-min Rain = 0
KSP1 181800Z 25014G19KT 20/01 A2974 RMK A01 T01950009  RH  029%=      5-min Rain = 0
KSP1 181805Z 25015G22KT 20/01 A2974 RMK A01 T01950006  RH  028%=      5-min Rain = 0
KSP1 181810Z 26015G21KT 19/01 A2973 RMK A01 T01930006  RH  029%=      5-min Rain = 0
KSP1 181815Z 24014G19KT 20/01 A2972 RMK A01 T01970007  RH  029%=      5-min Rain = 0
KSP1 181820Z 25014G20KT 20/01 A2972 RMK A01 T02000007  RH  028%=      5-min Rain = 0
KSP1 181825Z 25016G22KT 20/00 A2971 RMK A01 T02040003  RH  026%=      5-min Rain = 0
KSP1 181830Z 24014G20KT 21/01 A2971 RMK A01 T02080005  RH  026%=      5-min Rain = 0
KSP1 181835Z 25012G18KT 21/01 A297 RMK A01 T02100006  RH  026%=      5-min Rain = 0
KSP1 181840Z 25013G22KT 21/00 A2969 RMK A01 T02130003  RH  025%=      5-min Rain = 0
KSP1 181845Z 25016G23KT 22/00 A2969 RMK A01 T02150001  RH  024%=      5-min Rain = 0
KSP1 181850Z 25017G24KT 21/00 A2968 RMK A01 T02120000  RH  025%=      5-min Rain = 0
KSP1 181855Z 25017G24KT 22/00 A2967 RMK A01 T02180002  RH  024%=      5-min Rain = 0
KSP1 181900Z 25016G23KT 22/00 A2967 RMK A01 T021900-0  RH  023%=      5-min Rain = 0
KSP1 181905Z 26017G25KT 22/M01 A2966 RMK A01 T02171005  RH  023%=      5-min Rain = 0
KSP1 181910Z 28020G30KT 22/M01 A2967 RMK A01 T02181014  RH  021%=      5-min Rain = 0
KSP1 181915Z 28018G28KT 22/M01 A2967 RMK A01 T02161013  RH  022%=      5-min Rain = 0
KSP1 181920Z 28018G27KT 21/M02 A2967 RMK A01 T02131015  RH  022%=      5-min Rain = 0
KSP1 181925Z 28016G27KT 21/M01 A2966 RMK A01 T02121014  RH  022%=      5-min Rain = 0
KSP1 181930Z 27015G24KT 21/M01 A2966 RMK A01 T02131012  RH  022%=      5-min Rain = 0
KSP1 181935Z 27017G25KT 22/M01 A2965 RMK A01 T02151013  RH  022%=      5-min Rain = 0
KSP1 181940Z 26019G30KT 21/M02 A2965 RMK A01 T02141015  RH  022%=      5-min Rain = 0
KSP1 181945Z 27018G28KT 21/M02 A2964 RMK A01 T02141015  RH  022%=      5-min Rain = 0
KSP1 181950Z 26023G31KT 21/M02 A2964 RMK A01 T02141016  RH  021%=      5-min Rain = 0
KSP1 181955Z 26022G28KT 21/M02 A2964 RMK A01 T02131015  RH  022%=      5-min Rain = 0
KSP1 182000Z 28018G27KT 21/M01 A2964 RMK A01 T02131013  RH  022%=      5-min Rain = 0
KSP1 182005Z 27018G29KT 22/M01 A2963 RMK A01 T02151013  RH  022%=      5-min Rain = 0
KSP1 182010Z 27017G24KT 22/M01 A2962 RMK A01 T02171011  RH  022%=      5-min Rain = 0
KSP1 182015Z 27016G24KT 22/M01 A2962 RMK A01 T02211011  RH  022%=      5-min Rain = 0
KSP1 182020Z 26020G32KT 22/M01 A2962 RMK A01 T02211013  RH  021%=      5-min Rain = 0
KSP1 182025Z 26024G33KT 22/M01 A2962 RMK A01 T02191013  RH  021%=      5-min Rain = 0
KSP1 182030Z 26017G25KT 22/M01 A2962 RMK A01 T02211010  RH  022%=      5-min Rain = 0
KSP1 182035Z 27019G24KT 22/M01 A2961 RMK A01 T02221013  RH  021%=      5-min Rain = 0
KSP1 182040Z 27018G25KT 22/M01 A2961 RMK A01 T02201013  RH  021%=      5-min Rain = 0
KSP1 182045Z 26018G26KT 22/M01 A2961 RMK A01 T02171013  RH  021%=      5-min Rain = 0
KSP1 182050Z 27018G25KT 22/M01 A2961 RMK A01 T02191012  RH  021%=      5-min Rain = 0
KSP1 182055Z 27020G31KT 22/M02 A2961 RMK A01 T02221015  RH  021%=      5-min Rain = 0
KSP1 182100Z 27018G28KT 22/M02 A2961 RMK A01 T02221015  RH  021%=      5-min Rain = 0
KSP1 182105Z 27020G30KT 22/M02 A2961 RMK A01 T02171016  RH  021%=      5-min Rain = 0
KSP1 182110Z 27019G28KT 21/M02 A2961 RMK A01 T02131015  RH  022%=      5-min Rain = 0
KSP1 182115Z 27020G29KT 21/M02 A2961 RMK A01 T02101018  RH  022%=      5-min Rain = 0
KSP1 182120Z 28019G27KT 21/M02 A2961 RMK A01 T02091021  RH  021%=      5-min Rain = 0
KSP1 182125Z 27019G26KT 21/M02 A2961 RMK A01 T02091020  RH  022%=      5-min Rain = 0
KSP1 182130Z 27020G31KT 21/M02 A2961 RMK A01 T02081019  RH  022%=      5-min Rain = 0
KSP1 182135Z 27018G29KT 21/M02 A2961 RMK A01 T02071019  RH  022%=      5-min Rain = 0
KSP1 182140Z 27018G27KT 21/M02 A2961 RMK A01 T02061019  RH  022%=      5-min Rain = 0
KSP1 182145Z 27017G28KT 21/M02 A2962 RMK A01 T02061018  RH  022%=      5-min Rain = 0
KSP1 182150Z 26019G27KT 21/M02 A2962 RMK A01 T02061018  RH  022%=      5-min Rain = 0
KSP1 182155Z 27021G28KT 21/M02 A2962 RMK A01 T02061019  RH  022%=      5-min Rain = 0
KSP1 182200Z 26017G23KT 21/M02 A2962 RMK A01 T02051018  RH  022%=      5-min Rain = 0
KSP1 182205Z 26021G31KT 21/M02 A2962 RMK A01 T02051018  RH  022%=      5-min Rain = 0
KSP1 182210Z 28015G24KT 21/M02 A2962 RMK A01 T02051018  RH  022%=      5-min Rain = 0
KSP1 182215Z 29017G25KT 20/M02 A2962 RMK A01 T02031023  RH  022%=      5-min Rain = 0
KSP1 182220Z 28016G28KT 20/M02 A2962 RMK A01 T02031018  RH  023%=      5-min Rain = 0
KSP1 182225Z 27018G28KT 20/M01 A2962 RMK A01 T02021014  RH  023%=      5-min Rain = 0
KSP1 182230Z 28022G33KT 20/M02 A2963 RMK A01 T02001019  RH  023%=      5-min Rain = 0
KSP1 182235Z 28017G26KT 20/M02 A2963 RMK A01 T01971016  RH  024%=      5-min Rain = 0
KSP1 182240Z 26018G25KT 20/M01 A2963 RMK A01 T01961014  RH  024%=      5-min Rain = 0
KSP1 182245Z 27021G31KT 19/M02 A2963 RMK A01 T01941016  RH  024%=      5-min Rain = 0
KSP1 182250Z 27017G29KT 19/M02 A2963 RMK A01 T01911015  RH  025%=      5-min Rain = 0
KSP1 182255Z 27019G28KT 19/M01 A2963 RMK A01 T01901014  RH  025%=      5-min Rain = 0
KSP1 182300Z 26018G29KT 19/M01 A2963 RMK A01 T01891013  RH  026%=      5-min Rain = 0
KSP1 182305Z 27019G27KT 19/M01 A2963 RMK A01 T01881013  RH  026%=      5-min Rain = 0
KSP1 182310Z 26019G26KT 19/M01 A2963 RMK A01 T01861013  RH  026%=      5-min Rain = 0
KSP1 182315Z 26019G27KT 19/M01 A2963 RMK A01 T01861013  RH  026%=      5-min Rain = 0
KSP1 182320Z 26018G29KT 19/M02 A2963 RMK A01 T01851015  RH  026%=      5-min Rain = 0
KSP1 182325Z 26019G30KT 19/M02 A2963 RMK A01 T01851021  RH  025%=      5-min Rain = 0
KSP1 182330Z 26018G28KT 19/M03 A2963 RMK A01 T01851025  RH  024%=      5-min Rain = 0
KSP1 182335Z 27021G29KT 19/M03 A2964 RMK A01 T01851033  RH  023%=      5-min Rain = 0
KSP1 182340Z 27023G34KT 18/M04 A2964 RMK A01 T01841039  RH  022%=      5-min Rain = 0
KSP1 182345Z 26024G37KT 18/M04 A2964 RMK A01 T01841041  RH  021%=      5-min Rain = 0
KSP1 182350Z 26019G29KT 18/M04 A2963 RMK A01 T01831041  RH  022%=      5-min Rain = 0
KSP1 182355Z 26017G24KT 18/M05 A2963 RMK A01 T01821045  RH  021%=      5-min Rain = 0
KSP1 190000Z 26015G20KT 18/M04 A2963 RMK A01 T01801041  RH  022%=      5-min Rain = 0
KSP1 190005Z 26015G23KT 18/M04 A2962 RMK A01 T01771042  RH  022%=      5-min Rain = 0
KSP1 190010Z 26014G19KT 17/M04 A2962 RMK A01 T01741042  RH  023%=      5-min Rain = 0
KSP1 190015Z 26015G21KT 17/M04 A2962 RMK A01 T01731043  RH  023%=      5-min Rain = 0
KSP1 190020Z 25015G21KT 17/M04 A2963 RMK A01 T01711042  RH  023%=      5-min Rain = 0
KSP1 190025Z 25011G17KT 17/M04 A2964 RMK A01 T01691040  RH  024%=      5-min Rain = 0
KSP1 190030Z 25014G20KT 17/M04 A2965 RMK A01 T01671042  RH  024%=      5-min Rain = 0
KSP1 190035Z 26016G22KT 17/M05 A2965 RMK A01 T01671049  RH  023%=      5-min Rain = 0
KSP1 190040Z 26015G20KT 17/M05 A2965 RMK A01 T01661051  RH  022%=      5-min Rain = 0
KSP1 190045Z 26014KT 16/M05 A2966 RMK A01 T01641052  RH  022%=      5-min Rain = 0
KSP1 190050Z 26013KT 16/M05 A2966 RMK A01 T01611052  RH  023%=      5-min Rain = 0
KSP1 190055Z 26014G19KT 16/M05 A2966 RMK A01 T01601052  RH  023%=      5-min Rain = 0
KSP1 190100Z 26013G19KT 16/M05 A2967 RMK A01 T01591052  RH  023%=      5-min Rain = 0
KSP1 190105Z 26015G24KT 16/M05 A2967 RMK A01 T01591054  RH  023%=      5-min Rain = 0
KSP1 190110Z 26015G22KT 16/M05 A2968 RMK A01 T01591054  RH  023%=      5-min Rain = 0
KSP1 190115Z 26015KT 16/M06 A2967 RMK A01 T01581055  RH  023%=      5-min Rain = 0
KSP1 190120Z 26015G20KT 16/M06 A2967 RMK A01 T01571056  RH  023%=      5-min Rain = 0
KSP1 190125Z 26015G21KT 16/M06 A2967 RMK A01 T01551058  RH  022%=      5-min Rain = 0
KSP1 190130Z 26015G22KT 15/M06 A2968 RMK A01 T01541060  RH  022%=      5-min Rain = 0
KSP1 190135Z 26013G18KT 15/M06 A2968 RMK A01 T01501059  RH  023%=      5-min Rain = 0
KSP1 190140Z 26011G18KT 15/M06 A2967 RMK A01 T01461059  RH  024%=      5-min Rain = 0
KSP1 190145Z 26009KT 14/M06 A2967 RMK A01 T01411057  RH  025%=      5-min Rain = 0
KSP1 190150Z 26009KT 14/M06 A2967 RMK A01 T01371056  RH  026%=      5-min Rain = 0
KSP1 190155Z 26008KT 13/M05 A2967 RMK A01 T01331054  RH  027%=      5-min Rain = 0
KSP1 190200Z 26008KT 13/M06 A2968 RMK A01 T01301055  RH  027%=      5-min Rain = 0
KSP1 190205Z 28013G27KT 13/M06 A2968 RMK A01 T01271055  RH  028%=      5-min Rain = 0
KSP1 190210Z 29019G25KT 14/M06 A2969 RMK A01 T01401059  RH  025%=      5-min Rain = 0
KSP1 190215Z 33017G33KT 14/M05 A2971 RMK A01 T01361048  RH  028%=      5-min Rain = 0
KSP1 190220Z 01023G32KT 10/M01 A2973 RMK A01 T01021010  RH  046%=      5-min Rain = 0
KSP1 190225Z 00026G33KT 08/M01 A2974 RMK A01 T00801006  RH  055%=      5-min Rain = 0
KSP1 190230Z 35023G34KT 07/M01 A2976 RMK A01 T00731006  RH  058%=      5-min Rain = 0
KSP1 190235Z 36024G35KT 07/M01 A2976 RMK A01 T00681006  RH  060%=      5-min Rain = 0
KSP1 190240Z 35020G26KT 06/M01 A2978 RMK A01 T00641007  RH  061%=      5-min Rain = 0
KSP1 190245Z 34024G34KT 06/M01 A2979 RMK A01 T00621008  RH  061%=      5-min Rain = 0
KSP1 190250Z 33024G34KT 06/M01 A298 RMK A01 T00601008  RH  062%=      5-min Rain = 0
KSP1 190255Z 34022G31KT 06/M01 A2981 RMK A01 T00581008  RH  063%=      5-min Rain = 0
KSP1 190300Z 35022G30KT 06/M01 A2981 RMK A01 T00561009  RH  064%=      5-min Rain = 0
KSP1 190305Z 34025G33KT 05/M01 A2981 RMK A01 T00541011  RH  063%=      5-min Rain = 0
KSP1 190310Z 34029G34KT 05/M01 A2981 RMK A01 T00531012  RH  064%=      5-min Rain = 0
KSP1 190315Z 34025G32KT 05/M01 A2983 RMK A01 T00521012  RH  064%=      5-min Rain = 0
KSP1 190320Z 34027G35KT 05/M01 A2983 RMK A01 T00521012  RH  064%=      5-min Rain = 0
KSP1 190325Z 34028G39KT 05/M01 A2983 RMK A01 T00521012  RH  064%=      5-min Rain = 0
KSP1 190330Z 34029G37KT 05/M01 A2984 RMK A01 T00511012  RH  064%=      5-min Rain = 0
KSP1 190335Z 34027G34KT 05/M01 A2984 RMK A01 T00511012  RH  064%=      5-min Rain = 0
KSP1 190340Z 34027G34KT 05/M01 A2985 RMK A01 T00511012  RH  064%=      5-min Rain = 0
KSP1 190345Z 34027G34KT 05/M01 A2985 RMK A01 T00501012  RH  065%=      5-min Rain = 0
KSP1 190350Z 34021G32KT 05/M01 A2986 RMK A01 T00511011  RH  065%=      5-min Rain = 0
KSP1 190355Z 34025G34KT 05/M01 A2986 RMK A01 T00511011  RH  065%=      5-min Rain = 0
KSP1 190400Z 34026G32KT 05/M01 A2987 RMK A01 T00501011  RH  065%=      5-min Rain = 0
KSP1 190405Z 34024G34KT 05/M01 A2988 RMK A01 T00501011  RH  065%=      5-min Rain = 0
KSP1 190410Z 35026G34KT 05/M01 A2988 RMK A01 T00491012  RH  065%=      5-min Rain = 0
KSP1 190415Z 35021G29KT 05/M01 A2989 RMK A01 T00491012  RH  065%=      5-min Rain = 0
KSP1 190420Z 35019G28KT 05/M01 A299 RMK A01 T00491013  RH  065%=      5-min Rain = 0
KSP1 190425Z 34021G32KT 05/M01 A299 RMK A01 T00491014  RH  064%=      5-min Rain = 0
KSP1 190430Z 35025G36KT 05/M02 A299 RMK A01 T00491017  RH  063%=      5-min Rain = 0
KSP1 190435Z 35029G38KT 05/M02 A2991 RMK A01 T00491020  RH  061%=      5-min Rain = 0
KSP1 190440Z 35026G35KT 05/M02 A2991 RMK A01 T00471023  RH  061%=      5-min Rain = 0
KSP1 190445Z 36024G30KT 05/M02 A2991 RMK A01 T00461024  RH  061%=      5-min Rain = 0
KSP1 190450Z 35019G24KT 05/M02 A2992 RMK A01 T00461024  RH  061%=      5-min Rain = 0
KSP1 190455Z 34025G38KT 05/M02 A2992 RMK A01 T00461023  RH  061%=      5-min Rain = 0
KSP1 190500Z 35025G33KT 05/M02 A2993 RMK A01 T00461023  RH  061%=      5-min Rain = 0
KSP1 190505Z 35026G35KT 05/M02 A2994 RMK A01 T00451024  RH  061%=      5-min Rain = 0
KSP1 190510Z 35024G31KT 04/M03 A2995 RMK A01 T00431025  RH  062%=      5-min Rain = 0
KSP1 190515Z 35022G32KT 04/M03 A2995 RMK A01 T00421025  RH  062%=      5-min Rain = 0
KSP1 190520Z 35021G29KT 04/M03 A2995 RMK A01 T00421026  RH  062%=      5-min Rain = 0
KSP1 190525Z 34020G29KT 04/M03 A2996 RMK A01 T00421026  RH  062%=      5-min Rain = 0
KSP1 190530Z 35027G35KT 04/M03 A2996 RMK A01 T00411028  RH  061%=      5-min Rain = 0
KSP1 190535Z 35021G28KT 04/M03 A2997 RMK A01 T00411028  RH  061%=      5-min Rain = 0
KSP1 190540Z 35024G31KT 04/M03 A2997 RMK A01 T00401029  RH  061%=      5-min Rain = 0
KSP1 190545Z 35024G33KT 04/M03 A2997 RMK A01 T00401030  RH  061%=      5-min Rain = 0
KSP1 190550Z 35020G26KT 04/M03 A2998 RMK A01 T00391030  RH  061%=      5-min Rain = 0
KSP1 190555Z 35018G25KT 04/M03 A2998 RMK A01 T00391030  RH  061%=      5-min Rain = 0

Page generated in 0.0161 seconds.